sensor_id;sensor_type;location;lat;lon;timestamp;P1;durP1;ratioP1;P2;durP2;ratioP2
50417;SDS011;36346;48.280;14.292;2022-11-23T00:01:34;9.59;;;9.53;;
50417;SDS011;36346;48.280;14.292;2022-11-23T00:04:05;9.14;;;9.14;;
50417;SDS011;36346;48.280;14.292;2022-11-23T00:06:34;9.61;;;9.61;;
50417;SDS011;36346;48.280;14.292;2022-11-23T00:09:02;9.78;;;9.78;;
50417;SDS011;36346;48.280;14.292;2022-11-23T00:11:32;10.47;;;10.44;;
50417;SDS011;36346;48.280;14.292;2022-11-23T00:14:02;10.35;;;10.29;;
50417;SDS011;36346;48.280;14.292;2022-11-23T00:16:31;10.50;;;10.50;;
50417;SDS011;36346;48.280;14.292;2022-11-23T00:19:00;10.43;;;10.43;;
50417;SDS011;36346;48.280;14.292;2022-11-23T00:21:29;10.53;;;10.52;;
50417;SDS011;36346;48.280;14.292;2022-11-23T00:23:58;10.22;;;10.20;;
50417;SDS011;36346;48.280;14.292;2022-11-23T00:26:27;10.29;;;10.29;;
50417;SDS011;36346;48.280;14.292;2022-11-23T00:28:54;10.36;;;10.36;;
50417;SDS011;36346;48.280;14.292;2022-11-23T00:31:26;10.38;;;10.38;;
50417;SDS011;36346;48.280;14.292;2022-11-23T00:33:55;9.98;;;9.98;;
50417;SDS011;36346;48.280;14.292;2022-11-23T00:36:24;10.42;;;10.42;;
50417;SDS011;36346;48.280;14.292;2022-11-23T00:38:53;10.51;;;10.51;;
50417;SDS011;36346;48.280;14.292;2022-11-23T00:41:22;10.91;;;10.91;;
50417;SDS011;36346;48.280;14.292;2022-11-23T00:43:53;10.47;;;10.47;;
50417;SDS011;36346;48.280;14.292;2022-11-23T00:46:30;10.59;;;10.59;;
50417;SDS011;36346;48.280;14.292;2022-11-23T00:48:58;10.08;;;10.08;;
50417;SDS011;36346;48.280;14.292;2022-11-23T00:51:29;10.59;;;10.59;;
50417;SDS011;36346;48.280;14.292;2022-11-23T00:53:59;9.91;;;9.91;;
50417;SDS011;36346;48.280;14.292;2022-11-23T00:56:28;10.27;;;10.27;;
50417;SDS011;36346;48.280;14.292;2022-11-23T00:58:57;10.28;;;10.28;;
50417;SDS011;36346;48.280;14.292;2022-11-23T01:01:29;10.08;;;10.08;;
50417;SDS011;36346;48.280;14.292;2022-11-23T01:12:21;9.70;;;9.70;;
50417;SDS011;36346;48.280;14.292;2022-11-23T01:14:51;9.57;;;9.57;;
50417;SDS011;36346;48.280;14.292;2022-11-23T01:17:21;10.35;;;10.35;;
50417;SDS011;36346;48.280;14.292;2022-11-23T01:19:51;9.98;;;9.97;;
50417;SDS011;36346;48.280;14.292;2022-11-23T01:22:19;9.88;;;9.88;;
50417;SDS011;36346;48.280;14.292;2022-11-23T01:24:49;9.77;;;9.75;;
50417;SDS011;36346;48.280;14.292;2022-11-23T01:27:17;9.77;;;9.74;;
50417;SDS011;36346;48.280;14.292;2022-11-23T01:29:45;9.60;;;9.60;;
50417;SDS011;36346;48.280;14.292;2022-11-23T01:32:13;9.41;;;9.41;;
50417;SDS011;36346;48.280;14.292;2022-11-23T01:34:41;9.59;;;9.59;;
50417;SDS011;36346;48.280;14.292;2022-11-23T01:37:09;9.78;;;9.78;;
50417;SDS011;36346;48.280;14.292;2022-11-23T01:39:37;9.58;;;9.58;;
50417;SDS011;36346;48.280;14.292;2022-11-23T01:42:05;9.73;;;9.73;;
50417;SDS011;36346;48.280;14.292;2022-11-23T01:44:36;9.74;;;9.74;;
50417;SDS011;36346;48.280;14.292;2022-11-23T01:47:06;9.81;;;9.81;;
50417;SDS011;36346;48.280;14.292;2022-11-23T01:49:40;10.15;;;10.15;;
50417;SDS011;36346;48.280;14.292;2022-11-23T01:52:21;10.04;;;10.04;;
50417;SDS011;36346;48.280;14.292;2022-11-23T01:54:53;9.85;;;9.85;;
50417;SDS011;36346;48.280;14.292;2022-11-23T01:57:33;9.96;;;9.96;;
50417;SDS011;36346;48.280;14.292;2022-11-23T02:00:07;9.85;;;9.85;;
50417;SDS011;36346;48.280;14.292;2022-11-23T02:02:44;10.29;;;10.29;;
50417;SDS011;36346;48.280;14.292;2022-11-23T02:05:20;10.03;;;10.03;;
50417;SDS011;36346;48.280;14.292;2022-11-23T02:07:54;10.33;;;10.33;;
50417;SDS011;36346;48.280;14.292;2022-11-23T02:10:22;10.02;;;10.02;;
50417;SDS011;36346;48.280;14.292;2022-11-23T02:12:51;9.95;;;9.95;;
50417;SDS011;36346;48.280;14.292;2022-11-23T02:15:20;10.06;;;10.06;;
50417;SDS011;36346;48.280;14.292;2022-11-23T02:17:49;10.10;;;10.10;;
50417;SDS011;36346;48.280;14.292;2022-11-23T02:20:19;10.40;;;10.40;;
50417;SDS011;36346;48.280;14.292;2022-11-23T02:28:20;10.46;;;10.46;;
50417;SDS011;36346;48.280;14.292;2022-11-23T02:30:52;10.50;;;10.50;;
50417;SDS011;36346;48.280;14.292;2022-11-23T02:33:23;10.21;;;10.21;;
50417;SDS011;36346;48.280;14.292;2022-11-23T02:35:53;10.48;;;10.48;;
50417;SDS011;36346;48.280;14.292;2022-11-23T02:38:24;10.03;;;10.03;;
50417;SDS011;36346;48.280;14.292;2022-11-23T02:40:59;9.74;;;9.74;;
50417;SDS011;36346;48.280;14.292;2022-11-23T02:43:28;10.19;;;10.19;;
50417;SDS011;36346;48.280;14.292;2022-11-23T02:45:56;10.36;;;10.36;;
50417;SDS011;36346;48.280;14.292;2022-11-23T02:48:26;10.47;;;10.47;;
50417;SDS011;36346;48.280;14.292;2022-11-23T02:50:55;10.15;;;10.15;;
50417;SDS011;36346;48.280;14.292;2022-11-23T02:53:23;10.07;;;10.07;;
50417;SDS011;36346;48.280;14.292;2022-11-23T02:55:54;10.33;;;10.31;;
50417;SDS011;36346;48.280;14.292;2022-11-23T02:58:23;10.95;;;10.95;;
50417;SDS011;36346;48.280;14.292;2022-11-23T03:00:51;10.26;;;10.26;;
50417;SDS011;36346;48.280;14.292;2022-11-23T03:03:19;9.89;;;9.89;;
50417;SDS011;36346;48.280;14.292;2022-11-23T03:05:47;10.11;;;10.11;;
50417;SDS011;36346;48.280;14.292;2022-11-23T03:08:15;10.34;;;10.34;;
50417;SDS011;36346;48.280;14.292;2022-11-23T03:10:44;10.52;;;10.52;;
50417;SDS011;36346;48.280;14.292;2022-11-23T03:13:12;10.20;;;10.20;;
50417;SDS011;36346;48.280;14.292;2022-11-23T03:15:40;10.68;;;10.68;;
50417;SDS011;36346;48.280;14.292;2022-11-23T03:18:09;10.70;;;10.70;;
50417;SDS011;36346;48.280;14.292;2022-11-23T03:20:38;10.60;;;10.60;;
50417;SDS011;36346;48.280;14.292;2022-11-23T03:23:06;10.63;;;10.63;;
50417;SDS011;36346;48.280;14.292;2022-11-23T03:25:35;9.88;;;9.88;;
50417;SDS011;36346;48.280;14.292;2022-11-23T03:28:04;10.03;;;10.03;;
50417;SDS011;36346;48.280;14.292;2022-11-23T03:30:33;10.17;;;10.17;;
50417;SDS011;36346;48.280;14.292;2022-11-23T03:33:03;9.60;;;9.60;;
50417;SDS011;36346;48.280;14.292;2022-11-23T03:35:31;10.05;;;10.05;;
50417;SDS011;36346;48.280;14.292;2022-11-23T03:38:14;10.14;;;10.14;;
50417;SDS011;36346;48.280;14.292;2022-11-23T03:40:43;10.55;;;10.55;;
50417;SDS011;36346;48.280;14.292;2022-11-23T03:43:23;10.12;;;10.12;;
50417;SDS011;36346;48.280;14.292;2022-11-23T03:45:51;10.13;;;10.13;;
50417;SDS011;36346;48.280;14.292;2022-11-23T03:48:19;10.13;;;10.13;;
50417;SDS011;36346;48.280;14.292;2022-11-23T03:50:48;10.59;;;10.59;;
50417;SDS011;36346;48.280;14.292;2022-11-23T03:53:16;10.36;;;10.36;;
50417;SDS011;36346;48.280;14.292;2022-11-23T03:55:45;10.23;;;10.23;;
50417;SDS011;36346;48.280;14.292;2022-11-23T03:58:14;10.36;;;10.36;;
50417;SDS011;36346;48.280;14.292;2022-11-23T04:00:42;10.78;;;10.78;;
50417;SDS011;36346;48.280;14.292;2022-11-23T04:03:12;11.26;;;11.26;;
50417;SDS011;36346;48.280;14.292;2022-11-23T04:06:13;10.75;;;10.75;;
50417;SDS011;36346;48.280;14.292;2022-11-23T04:08:50;10.65;;;10.64;;
50417;SDS011;36346;48.280;14.292;2022-11-23T04:11:29;10.26;;;10.26;;
50417;SDS011;36346;48.280;14.292;2022-11-23T04:13:57;10.58;;;10.58;;
50417;SDS011;36346;48.280;14.292;2022-11-23T04:16:25;10.49;;;10.49;;
50417;SDS011;36346;48.280;14.292;2022-11-23T04:18:53;10.56;;;10.56;;
50417;SDS011;36346;48.280;14.292;2022-11-23T04:21:22;10.27;;;10.27;;
50417;SDS011;36346;48.280;14.292;2022-11-23T04:23:50;10.42;;;10.42;;
50417;SDS011;36346;48.280;14.292;2022-11-23T04:26:19;10.10;;;10.10;;
50417;SDS011;36346;48.280;14.292;2022-11-23T04:28:47;10.61;;;10.61;;
50417;SDS011;36346;48.280;14.292;2022-11-23T04:31:15;10.71;;;10.71;;
50417;SDS011;36346;48.280;14.292;2022-11-23T04:33:53;10.52;;;10.52;;
50417;SDS011;36346;48.280;14.292;2022-11-23T04:36:23;10.52;;;10.52;;
50417;SDS011;36346;48.280;14.292;2022-11-23T04:38:52;10.91;;;10.91;;
50417;SDS011;36346;48.280;14.292;2022-11-23T04:41:26;10.79;;;10.79;;
50417;SDS011;36346;48.280;14.292;2022-11-23T04:43:54;11.05;;;11.05;;
50417;SDS011;36346;48.280;14.292;2022-11-23T04:46:23;11.15;;;11.15;;
50417;SDS011;36346;48.280;14.292;2022-11-23T04:48:51;11.38;;;11.38;;
50417;SDS011;36346;48.280;14.292;2022-11-23T04:51:20;11.31;;;11.31;;
50417;SDS011;36346;48.280;14.292;2022-11-23T04:53:48;11.36;;;11.36;;
50417;SDS011;36346;48.280;14.292;2022-11-23T04:56:16;11.25;;;11.25;;
50417;SDS011;36346;48.280;14.292;2022-11-23T04:58:44;11.71;;;11.71;;
50417;SDS011;36346;48.280;14.292;2022-11-23T05:01:12;11.25;;;11.25;;
50417;SDS011;36346;48.280;14.292;2022-11-23T05:04:00;11.03;;;11.03;;
50417;SDS011;36346;48.280;14.292;2022-11-23T05:06:28;10.59;;;10.59;;
50417;SDS011;36346;48.280;14.292;2022-11-23T05:08:58;11.23;;;11.23;;
50417;SDS011;36346;48.280;14.292;2022-11-23T05:11:45;13.16;;;13.15;;
50417;SDS011;36346;48.280;14.292;2022-11-23T05:14:14;11.62;;;11.62;;
50417;SDS011;36346;48.280;14.292;2022-11-23T05:16:42;12.39;;;12.38;;
50417;SDS011;36346;48.280;14.292;2022-11-23T05:19:10;11.69;;;11.69;;
50417;SDS011;36346;48.280;14.292;2022-11-23T05:21:39;11.85;;;11.85;;
50417;SDS011;36346;48.280;14.292;2022-11-23T05:24:07;11.83;;;11.83;;
50417;SDS011;36346;48.280;14.292;2022-11-23T05:26:38;11.77;;;11.77;;
50417;SDS011;36346;48.280;14.292;2022-11-23T05:29:07;12.74;;;12.74;;
50417;SDS011;36346;48.280;14.292;2022-11-23T05:31:35;13.65;;;13.65;;
50417;SDS011;36346;48.280;14.292;2022-11-23T05:34:03;14.12;;;14.12;;
50417;SDS011;36346;48.280;14.292;2022-11-23T05:36:43;13.49;;;13.48;;
50417;SDS011;36346;48.280;14.292;2022-11-23T05:39:12;13.88;;;13.88;;
50417;SDS011;36346;48.280;14.292;2022-11-23T05:41:40;12.76;;;12.76;;
50417;SDS011;36346;48.280;14.292;2022-11-23T05:44:22;13.59;;;13.59;;
50417;SDS011;36346;48.280;14.292;2022-11-23T05:46:50;13.22;;;13.22;;
50417;SDS011;36346;48.280;14.292;2022-11-23T05:49:20;13.27;;;13.27;;
50417;SDS011;36346;48.280;14.292;2022-11-23T05:51:49;13.47;;;13.47;;
50417;SDS011;36346;48.280;14.292;2022-11-23T05:54:17;14.15;;;14.14;;
50417;SDS011;36346;48.280;14.292;2022-11-23T05:56:56;13.25;;;13.18;;
50417;SDS011;36346;48.280;14.292;2022-11-23T05:59:34;13.23;;;13.23;;
50417;SDS011;36346;48.280;14.292;2022-11-23T06:02:02;13.59;;;13.59;;
50417;SDS011;36346;48.280;14.292;2022-11-23T06:04:34;14.09;;;14.09;;
50417;SDS011;36346;48.280;14.292;2022-11-23T06:07:05;13.48;;;13.48;;
50417;SDS011;36346;48.280;14.292;2022-11-23T06:09:53;11.80;;;11.80;;
50417;SDS011;36346;48.280;14.292;2022-11-23T06:12:21;11.19;;;11.19;;
50417;SDS011;36346;48.280;14.292;2022-11-23T06:14:49;11.85;;;11.85;;
50417;SDS011;36346;48.280;14.292;2022-11-23T06:17:21;11.60;;;11.60;;
50417;SDS011;36346;48.280;14.292;2022-11-23T06:19:50;11.10;;;11.10;;
50417;SDS011;36346;48.280;14.292;2022-11-23T06:22:18;12.02;;;12.02;;
50417;SDS011;36346;48.280;14.292;2022-11-23T06:24:56;11.97;;;11.97;;
50417;SDS011;36346;48.280;14.292;2022-11-23T06:30:25;12.36;;;12.36;;
50417;SDS011;36346;48.280;14.292;2022-11-23T06:33:00;12.46;;;12.46;;
50417;SDS011;36346;48.280;14.292;2022-11-23T06:35:33;12.12;;;12.12;;
50417;SDS011;36346;48.280;14.292;2022-11-23T06:38:00;12.28;;;12.28;;
50417;SDS011;36346;48.280;14.292;2022-11-23T06:40:29;11.64;;;11.64;;
50417;SDS011;36346;48.280;14.292;2022-11-23T06:42:58;11.73;;;11.73;;
50417;SDS011;36346;48.280;14.292;2022-11-23T06:45:43;13.32;;;13.32;;
50417;SDS011;36346;48.280;14.292;2022-11-23T06:48:14;13.39;;;13.39;;
50417;SDS011;36346;48.280;14.292;2022-11-23T06:50:46;13.48;;;13.48;;
50417;SDS011;36346;48.280;14.292;2022-11-23T06:53:15;13.33;;;13.33;;
50417;SDS011;36346;48.280;14.292;2022-11-23T06:55:50;13.44;;;13.44;;
50417;SDS011;36346;48.280;14.292;2022-11-23T06:58:20;13.22;;;13.22;;
50417;SDS011;36346;48.280;14.292;2022-11-23T07:00:48;13.59;;;13.59;;
50417;SDS011;36346;48.280;14.292;2022-11-23T07:03:20;13.55;;;13.55;;
50417;SDS011;36346;48.280;14.292;2022-11-23T07:06:06;13.89;;;13.88;;
50417;SDS011;36346;48.280;14.292;2022-11-23T07:08:35;13.88;;;13.88;;
50417;SDS011;36346;48.280;14.292;2022-11-23T07:11:22;13.17;;;13.17;;
50417;SDS011;36346;48.280;14.292;2022-11-23T07:13:50;13.24;;;13.24;;
50417;SDS011;36346;48.280;14.292;2022-11-23T07:16:18;12.45;;;12.44;;
50417;SDS011;36346;48.280;14.292;2022-11-23T07:18:49;12.50;;;12.50;;
50417;SDS011;36346;48.280;14.292;2022-11-23T07:21:17;12.58;;;12.58;;
50417;SDS011;36346;48.280;14.292;2022-11-23T07:23:46;13.41;;;13.41;;
50417;SDS011;36346;48.280;14.292;2022-11-23T07:26:14;13.84;;;13.84;;
50417;SDS011;36346;48.280;14.292;2022-11-23T07:28:42;12.27;;;12.27;;
50417;SDS011;36346;48.280;14.292;2022-11-23T07:31:10;12.63;;;12.63;;
50417;SDS011;36346;48.280;14.292;2022-11-23T07:33:41;13.07;;;13.07;;
50417;SDS011;36346;48.280;14.292;2022-11-23T07:36:11;15.19;;;15.19;;
50417;SDS011;36346;48.280;14.292;2022-11-23T07:38:41;15.24;;;15.23;;
50417;SDS011;36346;48.280;14.292;2022-11-23T07:41:11;15.94;;;15.93;;
50417;SDS011;36346;48.280;14.292;2022-11-23T07:43:50;13.27;;;13.27;;
50417;SDS011;36346;48.280;14.292;2022-11-23T07:46:19;14.18;;;14.18;;
50417;SDS011;36346;48.280;14.292;2022-11-23T07:48:47;13.66;;;13.66;;
50417;SDS011;36346;48.280;14.292;2022-11-23T07:51:15;14.09;;;14.09;;
50417;SDS011;36346;48.280;14.292;2022-11-23T07:53:46;13.62;;;13.62;;
50417;SDS011;36346;48.280;14.292;2022-11-23T07:56:14;13.55;;;13.55;;
50417;SDS011;36346;48.280;14.292;2022-11-23T07:58:42;14.17;;;14.17;;
50417;SDS011;36346;48.280;14.292;2022-11-23T08:01:13;13.90;;;13.90;;
50417;SDS011;36346;48.280;14.292;2022-11-23T08:03:42;14.83;;;14.83;;
50417;SDS011;36346;48.280;14.292;2022-11-23T08:06:10;14.53;;;14.53;;
50417;SDS011;36346;48.280;14.292;2022-11-23T08:08:38;15.81;;;15.81;;
50417;SDS011;36346;48.280;14.292;2022-11-23T08:11:07;15.52;;;15.49;;
50417;SDS011;36346;48.280;14.292;2022-11-23T08:13:36;14.84;;;14.82;;
50417;SDS011;36346;48.280;14.292;2022-11-23T08:16:04;14.43;;;14.43;;
50417;SDS011;36346;48.280;14.292;2022-11-23T08:18:32;14.21;;;14.21;;
50417;SDS011;36346;48.280;14.292;2022-11-23T08:21:00;14.57;;;14.57;;
50417;SDS011;36346;48.280;14.292;2022-11-23T08:23:30;14.95;;;14.95;;
50417;SDS011;36346;48.280;14.292;2022-11-23T08:26:00;15.72;;;15.72;;
50417;SDS011;36346;48.280;14.292;2022-11-23T08:28:29;15.23;;;15.23;;
50417;SDS011;36346;48.280;14.292;2022-11-23T08:30:57;15.70;;;15.69;;
50417;SDS011;36346;48.280;14.292;2022-11-23T08:33:25;15.81;;;15.81;;
50417;SDS011;36346;48.280;14.292;2022-11-23T08:35:54;15.42;;;15.42;;
50417;SDS011;36346;48.280;14.292;2022-11-23T08:38:22;15.31;;;15.31;;
50417;SDS011;36346;48.280;14.292;2022-11-23T08:40:56;15.83;;;15.78;;
50417;SDS011;36346;48.280;14.292;2022-11-23T08:43:26;15.50;;;15.45;;
50417;SDS011;36346;48.280;14.292;2022-11-23T08:45:55;15.37;;;15.33;;
50417;SDS011;36346;48.280;14.292;2022-11-23T08:48:34;15.67;;;15.64;;
50417;SDS011;36346;48.280;14.292;2022-11-23T08:51:02;15.40;;;15.38;;
50417;SDS011;36346;48.280;14.292;2022-11-23T08:53:30;14.94;;;14.94;;
50417;SDS011;36346;48.280;14.292;2022-11-23T08:55:59;15.95;;;15.89;;
50417;SDS011;36346;48.280;14.292;2022-11-23T08:58:28;15.44;;;15.41;;
50417;SDS011;36346;48.280;14.292;2022-11-23T09:00:57;15.67;;;15.67;;
50417;SDS011;36346;48.280;14.292;2022-11-23T09:03:25;15.58;;;15.57;;
50417;SDS011;36346;48.280;14.292;2022-11-23T09:05:57;16.03;;;16.03;;
50417;SDS011;36346;48.280;14.292;2022-11-23T09:08:26;16.07;;;16.07;;
50417;SDS011;36346;48.280;14.292;2022-11-23T09:11:13;16.30;;;16.27;;
50417;SDS011;36346;48.280;14.292;2022-11-23T09:13:41;15.61;;;15.61;;
50417;SDS011;36346;48.280;14.292;2022-11-23T09:16:09;15.98;;;15.98;;
50417;SDS011;36346;48.280;14.292;2022-11-23T09:18:37;15.65;;;15.62;;
50417;SDS011;36346;48.280;14.292;2022-11-23T09:21:06;15.99;;;15.99;;
50417;SDS011;36346;48.280;14.292;2022-11-23T09:23:34;15.70;;;15.70;;
50417;SDS011;36346;48.280;14.292;2022-11-23T09:26:03;16.07;;;16.07;;
50417;SDS011;36346;48.280;14.292;2022-11-23T09:28:32;15.64;;;15.63;;
50417;SDS011;36346;48.280;14.292;2022-11-23T09:31:01;15.37;;;15.36;;
50417;SDS011;36346;48.280;14.292;2022-11-23T09:33:30;15.40;;;15.40;;
50417;SDS011;36346;48.280;14.292;2022-11-23T09:35:59;15.30;;;15.22;;
50417;SDS011;36346;48.280;14.292;2022-11-23T09:38:28;15.20;;;15.20;;
50417;SDS011;36346;48.280;14.292;2022-11-23T09:44:04;14.44;;;14.44;;
50417;SDS011;36346;48.280;14.292;2022-11-23T09:52:34;12.29;;;12.29;;
50417;SDS011;36346;48.280;14.292;2022-11-23T09:55:12;12.33;;;12.33;;
50417;SDS011;36346;48.280;14.292;2022-11-23T09:57:45;11.32;;;11.32;;
50417;SDS011;36346;48.280;14.292;2022-11-23T10:02:47;11.35;;;11.35;;
50417;SDS011;36346;48.280;14.292;2022-11-23T10:05:25;11.74;;;11.74;;
50417;SDS011;36346;48.280;14.292;2022-11-23T10:26:35;12.74;;;12.74;;
50417;SDS011;36346;48.280;14.292;2022-11-23T10:29:13;12.96;;;12.96;;
50417;SDS011;36346;48.280;14.292;2022-11-23T10:32:01;13.66;;;13.66;;
50417;SDS011;36346;48.280;14.292;2022-11-23T10:37:12;13.35;;;13.35;;
50417;SDS011;36346;48.280;14.292;2022-11-23T10:39:43;13.05;;;13.05;;
50417;SDS011;36346;48.280;14.292;2022-11-23T10:45:03;13.14;;;13.14;;
50417;SDS011;36346;48.280;14.292;2022-11-23T10:47:47;12.68;;;12.68;;
50417;SDS011;36346;48.280;14.292;2022-11-23T10:50:23;12.27;;;12.24;;
50417;SDS011;36346;48.280;14.292;2022-11-23T10:55:32;11.07;;;11.07;;
50417;SDS011;36346;48.280;14.292;2022-11-23T10:58:28;11.69;;;11.69;;
50417;SDS011;36346;48.280;14.292;2022-11-23T11:01:02;19.99;;;19.85;;
50417;SDS011;36346;48.280;14.292;2022-11-23T11:03:33;11.94;;;11.89;;
50417;SDS011;36346;48.280;14.292;2022-11-23T11:06:02;9.54;;;9.54;;
50417;SDS011;36346;48.280;14.292;2022-11-23T11:08:50;8.46;;;8.46;;
50417;SDS011;36346;48.280;14.292;2022-11-23T11:14:00;8.33;;;8.33;;
50417;SDS011;36346;48.280;14.292;2022-11-23T11:19:19;9.04;;;9.04;;
50417;SDS011;36346;48.280;14.292;2022-11-23T11:21:51;8.63;;;8.63;;
50417;SDS011;36346;48.280;14.292;2022-11-23T11:24:20;8.54;;;8.54;;
50417;SDS011;36346;48.280;14.292;2022-11-23T11:26:58;7.85;;;7.85;;
50417;SDS011;36346;48.280;14.292;2022-11-23T11:29:33;7.67;;;7.66;;
50417;SDS011;36346;48.280;14.292;2022-11-23T11:37:36;8.07;;;8.07;;
50417;SDS011;36346;48.280;14.292;2022-11-23T11:45:47;9.24;;;9.24;;
50417;SDS011;36346;48.280;14.292;2022-11-23T11:48:44;9.10;;;9.10;;
50417;SDS011;36346;48.280;14.292;2022-11-23T11:51:28;8.77;;;8.77;;
50417;SDS011;36346;48.280;14.292;2022-11-23T11:54:08;9.15;;;9.15;;
50417;SDS011;36346;48.280;14.292;2022-11-23T11:56:42;9.74;;;9.74;;
50417;SDS011;36346;48.280;14.292;2022-11-23T11:59:39;12.87;;;12.87;;
50417;SDS011;36346;48.280;14.292;2022-11-23T12:13:18;12.84;;;12.84;;
50417;SDS011;36346;48.280;14.292;2022-11-23T12:52:14;10.66;;;10.66;;
50417;SDS011;36346;48.280;14.292;2022-11-23T12:55:17;10.09;;;10.09;;
50417;SDS011;36346;48.280;14.292;2022-11-23T13:00:30;10.09;;;10.09;;
50417;SDS011;36346;48.280;14.292;2022-11-23T13:05:54;11.24;;;11.24;;
50417;SDS011;36346;48.280;14.292;2022-11-23T13:19:25;10.22;;;10.22;;
50417;SDS011;36346;48.280;14.292;2022-11-23T13:21:59;9.77;;;9.77;;
50417;SDS011;36346;48.280;14.292;2022-11-23T13:24:33;10.07;;;10.07;;
50417;SDS011;36346;48.280;14.292;2022-11-23T13:30:06;10.19;;;10.19;;
50417;SDS011;36346;48.280;14.292;2022-11-23T13:42:55;10.32;;;10.32;;
50417;SDS011;36346;48.280;14.292;2022-11-23T13:45:46;10.99;;;10.99;;
50417;SDS011;36346;48.280;14.292;2022-11-23T13:48:56;10.59;;;10.59;;
50417;SDS011;36346;48.280;14.292;2022-11-23T13:51:31;10.84;;;10.83;;
50417;SDS011;36346;48.280;14.292;2022-11-23T13:54:14;10.87;;;10.87;;
50417;SDS011;36346;48.280;14.292;2022-11-23T13:56:55;10.38;;;10.38;;
50417;SDS011;36346;48.280;14.292;2022-11-23T13:59:31;11.10;;;11.10;;
50417;SDS011;36346;48.280;14.292;2022-11-23T14:04:42;9.69;;;9.69;;
50417;SDS011;36346;48.280;14.292;2022-11-23T14:07:35;9.72;;;9.72;;
50417;SDS011;36346;48.280;14.292;2022-11-23T14:10:17;9.21;;;9.21;;
50417;SDS011;36346;48.280;14.292;2022-11-23T14:15:24;8.44;;;8.43;;
50417;SDS011;36346;48.280;14.292;2022-11-23T14:41:31;10.57;;;10.56;;
50417;SDS011;36346;48.280;14.292;2022-11-23T14:44:03;12.74;;;12.70;;
50417;SDS011;36346;48.280;14.292;2022-11-23T14:46:32;11.57;;;11.57;;
50417;SDS011;36346;48.280;14.292;2022-11-23T14:49:04;12.09;;;12.09;;
50417;SDS011;36346;48.280;14.292;2022-11-23T14:51:34;13.57;;;13.57;;
50417;SDS011;36346;48.280;14.292;2022-11-23T14:54:08;10.67;;;10.67;;
50417;SDS011;36346;48.280;14.292;2022-11-23T14:56:41;11.68;;;11.68;;
50417;SDS011;36346;48.280;14.292;2022-11-23T15:01:45;16.72;;;16.71;;
50417;SDS011;36346;48.280;14.292;2022-11-23T15:04:26;14.78;;;14.78;;
50417;SDS011;36346;48.280;14.292;2022-11-23T15:12:19;12.61;;;12.61;;
50417;SDS011;36346;48.280;14.292;2022-11-23T15:14:48;12.37;;;12.37;;
50417;SDS011;36346;48.280;14.292;2022-11-23T15:17:18;12.86;;;12.86;;
50417;SDS011;36346;48.280;14.292;2022-11-23T15:19:59;12.98;;;12.98;;
50417;SDS011;36346;48.280;14.292;2022-11-23T15:22:29;12.90;;;12.90;;
50417;SDS011;36346;48.280;14.292;2022-11-23T15:25:03;12.73;;;12.73;;
50417;SDS011;36346;48.280;14.292;2022-11-23T15:27:37;12.64;;;12.64;;
50417;SDS011;36346;48.280;14.292;2022-11-23T15:30:13;13.13;;;13.11;;
50417;SDS011;36346;48.280;14.292;2022-11-23T15:32:43;13.65;;;13.65;;
50417;SDS011;36346;48.280;14.292;2022-11-23T15:35:12;14.15;;;14.15;;
50417;SDS011;36346;48.280;14.292;2022-11-23T15:37:45;13.70;;;13.70;;
50417;SDS011;36346;48.280;14.292;2022-11-23T15:40:16;14.10;;;14.10;;
50417;SDS011;36346;48.280;14.292;2022-11-23T15:42:46;13.99;;;13.99;;
50417;SDS011;36346;48.280;14.292;2022-11-23T15:45:32;14.22;;;14.22;;
50417;SDS011;36346;48.280;14.292;2022-11-23T15:48:22;14.47;;;14.47;;
50417;SDS011;36346;48.280;14.292;2022-11-23T15:50:56;14.65;;;14.64;;
50417;SDS011;36346;48.280;14.292;2022-11-23T15:56:02;13.82;;;13.79;;
50417;SDS011;36346;48.280;14.292;2022-11-23T15:58:33;14.17;;;14.17;;
50417;SDS011;36346;48.280;14.292;2022-11-23T16:01:11;14.38;;;14.33;;
50417;SDS011;36346;48.280;14.292;2022-11-23T16:03:46;14.25;;;14.23;;
50417;SDS011;36346;48.280;14.292;2022-11-23T16:06:22;14.93;;;14.93;;
50417;SDS011;36346;48.280;14.292;2022-11-23T16:08:53;16.49;;;16.34;;
50417;SDS011;36346;48.280;14.292;2022-11-23T16:11:26;16.94;;;16.92;;
50417;SDS011;36346;48.280;14.292;2022-11-23T16:14:13;17.59;;;17.56;;
50417;SDS011;36346;48.280;14.292;2022-11-23T16:16:46;17.95;;;17.90;;
50417;SDS011;36346;48.280;14.292;2022-11-23T16:19:27;22.03;;;21.99;;
50417;SDS011;36346;48.280;14.292;2022-11-23T16:22:06;23.52;;;23.42;;
50417;SDS011;36346;48.280;14.292;2022-11-23T16:24:34;22.68;;;22.60;;
50417;SDS011;36346;48.280;14.292;2022-11-23T16:27:13;22.92;;;22.84;;
50417;SDS011;36346;48.280;14.292;2022-11-23T16:29:43;23.37;;;23.31;;
50417;SDS011;36346;48.280;14.292;2022-11-23T16:32:25;22.38;;;22.26;;
50417;SDS011;36346;48.280;14.292;2022-11-23T16:34:54;20.75;;;20.64;;
50417;SDS011;36346;48.280;14.292;2022-11-23T16:37:26;19.72;;;19.71;;
50417;SDS011;36346;48.280;14.292;2022-11-23T16:39:55;21.37;;;21.33;;
50417;SDS011;36346;48.280;14.292;2022-11-23T16:42:24;27.32;;;27.19;;
50417;SDS011;36346;48.280;14.292;2022-11-23T16:44:53;34.93;;;34.80;;
50417;SDS011;36346;48.280;14.292;2022-11-23T16:47:23;34.26;;;34.07;;
50417;SDS011;36346;48.280;14.292;2022-11-23T16:49:54;30.04;;;29.91;;
50417;SDS011;36346;48.280;14.292;2022-11-23T16:52:23;28.24;;;28.19;;
50417;SDS011;36346;48.280;14.292;2022-11-23T16:54:51;26.54;;;26.45;;
50417;SDS011;36346;48.280;14.292;2022-11-23T16:57:23;27.94;;;27.80;;
50417;SDS011;36346;48.280;14.292;2022-11-23T16:59:56;32.16;;;32.08;;
50417;SDS011;36346;48.280;14.292;2022-11-23T17:02:29;32.95;;;32.85;;
50417;SDS011;36346;48.280;14.292;2022-11-23T17:04:59;31.08;;;31.05;;
50417;SDS011;36346;48.280;14.292;2022-11-23T17:07:27;30.70;;;30.65;;
50417;SDS011;36346;48.280;14.292;2022-11-23T17:09:55;27.64;;;27.61;;
50417;SDS011;36346;48.280;14.292;2022-11-23T17:12:25;27.87;;;27.85;;
50417;SDS011;36346;48.280;14.292;2022-11-23T17:14:53;27.05;;;27.01;;
50417;SDS011;36346;48.280;14.292;2022-11-23T17:17:22;26.38;;;26.26;;
50417;SDS011;36346;48.280;14.292;2022-11-23T17:19:50;25.35;;;25.32;;
50417;SDS011;36346;48.280;14.292;2022-11-23T17:22:18;24.48;;;24.44;;
50417;SDS011;36346;48.280;14.292;2022-11-23T17:24:47;23.34;;;23.29;;
50417;SDS011;36346;48.280;14.292;2022-11-23T17:27:17;22.17;;;22.09;;
50417;SDS011;36346;48.280;14.292;2022-11-23T17:29:50;21.78;;;21.78;;
50417;SDS011;36346;48.280;14.292;2022-11-23T17:32:24;21.78;;;21.78;;
50417;SDS011;36346;48.280;14.292;2022-11-23T17:34:53;23.35;;;23.32;;
50417;SDS011;36346;48.280;14.292;2022-11-23T17:37:22;21.88;;;21.88;;
50417;SDS011;36346;48.280;14.292;2022-11-23T17:39:50;23.33;;;23.13;;
50417;SDS011;36346;48.280;14.292;2022-11-23T17:42:18;22.67;;;22.63;;
50417;SDS011;36346;48.280;14.292;2022-11-23T17:44:47;23.45;;;23.39;;
50417;SDS011;36346;48.280;14.292;2022-11-23T17:47:24;23.52;;;23.51;;